sensor_id;sensor_type;location;lat;lon;timestamp;temperature;humidity
4056;DHT22;2043;52.184;8.690;2023-08-08T00:00:49;13.30;99.90
4056;DHT22;2043;52.184;8.690;2023-08-08T00:03:15;13.30;99.90
4056;DHT22;2043;52.184;8.690;2023-08-08T00:05:42;13.40;99.90
4056;DHT22;2043;52.184;8.690;2023-08-08T00:08:09;13.40;99.90
4056;DHT22;2043;52.184;8.690;2023-08-08T00:10:36;13.40;99.90
4056;DHT22;2043;52.184;8.690;2023-08-08T00:13:03;13.40;99.90
4056;DHT22;2043;52.184;8.690;2023-08-08T00:15:30;13.40;99.90
4056;DHT22;2043;52.184;8.690;2023-08-08T00:17:57;13.30;99.90
4056;DHT22;2043;52.184;8.690;2023-08-08T00:20:23;13.30;99.90
4056;DHT22;2043;52.184;8.690;2023-08-08T00:22:50;13.30;99.90
4056;DHT22;2043;52.184;8.690;2023-08-08T00:25:17;13.40;99.90
4056;DHT22;2043;52.184;8.690;2023-08-08T00:27:44;13.40;99.90
4056;DHT22;2043;52.184;8.690;2023-08-08T00:30:11;13.50;99.90
4056;DHT22;2043;52.184;8.690;2023-08-08T00:32:39;13.50;99.90
4056;DHT22;2043;52.184;8.690;2023-08-08T00:35:07;13.50;99.90
4056;DHT22;2043;52.184;8.690;2023-08-08T00:37:34;13.50;99.90
4056;DHT22;2043;52.184;8.690;2023-08-08T00:40:00;13.50;99.90
4056;DHT22;2043;52.184;8.690;2023-08-08T00:42:27;13.60;99.90
4056;DHT22;2043;52.184;8.690;2023-08-08T00:44:54;13.50;99.90
4056;DHT22;2043;52.184;8.690;2023-08-08T00:47:21;13.50;99.90
4056;DHT22;2043;52.184;8.690;2023-08-08T00:49:48;13.60;99.90
4056;DHT22;2043;52.184;8.690;2023-08-08T00:52:15;13.60;99.90
4056;DHT22;2043;52.184;8.690;2023-08-08T00:54:42;13.60;99.90
4056;DHT22;2043;52.184;8.690;2023-08-08T00:57:09;13.60;99.90
4056;DHT22;2043;52.184;8.690;2023-08-08T00:59:35;13.60;99.90
4056;DHT22;2043;52.184;8.690;2023-08-08T01:02:02;13.70;99.90
4056;DHT22;2043;52.184;8.690;2023-08-08T01:04:29;13.70;99.90
4056;DHT22;2043;52.184;8.690;2023-08-08T01:09:47;13.70;99.90
4056;DHT22;2043;52.184;8.690;2023-08-08T01:12:17;13.70;99.90
4056;DHT22;2043;52.184;8.690;2023-08-08T01:14:43;13.80;99.90
4056;DHT22;2043;52.184;8.690;2023-08-08T01:17:11;13.70;99.90
4056;DHT22;2043;52.184;8.690;2023-08-08T01:19:39;13.70;99.90
4056;DHT22;2043;52.184;8.690;2023-08-08T01:22:28;13.80;99.90
4056;DHT22;2043;52.184;8.690;2023-08-08T01:24:56;13.80;99.90
4056;DHT22;2043;52.184;8.690;2023-08-08T01:27:23;13.80;99.90
4056;DHT22;2043;52.184;8.690;2023-08-08T01:29:50;13.80;99.90
4056;DHT22;2043;52.184;8.690;2023-08-08T01:32:17;13.60;99.90
4056;DHT22;2043;52.184;8.690;2023-08-08T01:34:44;13.60;99.90
4056;DHT22;2043;52.184;8.690;2023-08-08T01:37:17;13.60;99.90
4056;DHT22;2043;52.184;8.690;2023-08-08T01:39:46;13.70;99.90
4056;DHT22;2043;52.184;8.690;2023-08-08T01:42:14;13.80;99.90
4056;DHT22;2043;52.184;8.690;2023-08-08T01:44:42;13.70;99.90
4056;DHT22;2043;52.184;8.690;2023-08-08T01:47:09;13.80;99.90
4056;DHT22;2043;52.184;8.690;2023-08-08T01:49:36;13.90;99.90
4056;DHT22;2043;52.184;8.690;2023-08-08T01:52:02;13.90;99.90
4056;DHT22;2043;52.184;8.690;2023-08-08T01:54:29;13.80;99.90
4056;DHT22;2043;52.184;8.690;2023-08-08T01:56:56;13.80;99.90
4056;DHT22;2043;52.184;8.690;2023-08-08T01:59:23;13.80;99.90
4056;DHT22;2043;52.184;8.690;2023-08-08T02:01:50;13.80;99.90
4056;DHT22;2043;52.184;8.690;2023-08-08T02:04:17;13.80;99.90
4056;DHT22;2043;52.184;8.690;2023-08-08T02:06:44;13.80;99.90
4056;DHT22;2043;52.184;8.690;2023-08-08T02:09:10;13.80;99.90
4056;DHT22;2043;52.184;8.690;2023-08-08T02:11:37;13.80;99.90
4056;DHT22;2043;52.184;8.690;2023-08-08T02:14:04;13.90;99.90
4056;DHT22;2043;52.184;8.690;2023-08-08T02:16:30;13.90;99.90
4056;DHT22;2043;52.184;8.690;2023-08-08T02:18:57;13.90;99.90
4056;DHT22;2043;52.184;8.690;2023-08-08T02:21:24;14.00;99.90
4056;DHT22;2043;52.184;8.690;2023-08-08T02:23:51;14.00;99.90
4056;DHT22;2043;52.184;8.690;2023-08-08T02:26:18;13.90;99.90
4056;DHT22;2043;52.184;8.690;2023-08-08T02:28:44;13.90;99.90
4056;DHT22;2043;52.184;8.690;2023-08-08T02:31:11;14.00;99.90
4056;DHT22;2043;52.184;8.690;2023-08-08T02:33:38;14.00;99.90
4056;DHT22;2043;52.184;8.690;2023-08-08T02:36:05;14.00;99.90
4056;DHT22;2043;52.184;8.690;2023-08-08T02:38:31;13.90;99.90
4056;DHT22;2043;52.184;8.690;2023-08-08T02:40:58;13.90;99.90
4056;DHT22;2043;52.184;8.690;2023-08-08T02:43:25;13.90;99.90
4056;DHT22;2043;52.184;8.690;2023-08-08T02:45:52;13.80;99.90
4056;DHT22;2043;52.184;8.690;2023-08-08T02:48:18;13.90;99.90
4056;DHT22;2043;52.184;8.690;2023-08-08T02:50:45;13.90;99.90
4056;DHT22;2043;52.184;8.690;2023-08-08T02:53:12;14.00;99.90
4056;DHT22;2043;52.184;8.690;2023-08-08T02:55:39;13.80;99.90
4056;DHT22;2043;52.184;8.690;2023-08-08T02:58:05;13.90;99.90
4056;DHT22;2043;52.184;8.690;2023-08-08T03:00:32;13.90;99.90
4056;DHT22;2043;52.184;8.690;2023-08-08T03:02:59;13.80;99.90
4056;DHT22;2043;52.184;8.690;2023-08-08T03:05:26;13.90;99.90
4056;DHT22;2043;52.184;8.690;2023-08-08T03:07:53;13.80;99.90
4056;DHT22;2043;52.184;8.690;2023-08-08T03:10:19;13.80;99.90
4056;DHT22;2043;52.184;8.690;2023-08-08T03:12:47;13.80;99.90
4056;DHT22;2043;52.184;8.690;2023-08-08T03:15:14;13.90;99.90
4056;DHT22;2043;52.184;8.690;2023-08-08T03:17:40;13.90;99.90
4056;DHT22;2043;52.184;8.690;2023-08-08T03:20:07;14.00;99.90
4056;DHT22;2043;52.184;8.690;2023-08-08T03:22:35;13.90;99.90
4056;DHT22;2043;52.184;8.690;2023-08-08T03:25:02;13.90;99.90
4056;DHT22;2043;52.184;8.690;2023-08-08T03:27:30;13.80;99.90
4056;DHT22;2043;52.184;8.690;2023-08-08T03:29:57;13.80;99.90
4056;DHT22;2043;52.184;8.690;2023-08-08T03:32:24;13.80;99.90
4056;DHT22;2043;52.184;8.690;2023-08-08T03:34:51;13.80;99.90
4056;DHT22;2043;52.184;8.690;2023-08-08T03:37:18;13.80;99.90
4056;DHT22;2043;52.184;8.690;2023-08-08T03:39:44;13.70;99.90
4056;DHT22;2043;52.184;8.690;2023-08-08T03:42:19;13.70;99.90
4056;DHT22;2043;52.184;8.690;2023-08-08T03:44:46;13.70;99.90
4056;DHT22;2043;52.184;8.690;2023-08-08T03:49:46;13.70;99.90
4056;DHT22;2043;52.184;8.690;2023-08-08T03:52:12;13.80;99.90
4056;DHT22;2043;52.184;8.690;2023-08-08T03:54:40;13.80;99.90
4056;DHT22;2043;52.184;8.690;2023-08-08T03:57:06;13.80;99.90
4056;DHT22;2043;52.184;8.690;2023-08-08T03:59:33;13.80;99.90
4056;DHT22;2043;52.184;8.690;2023-08-08T04:04:27;13.70;99.90
4056;DHT22;2043;52.184;8.690;2023-08-08T04:06:54;13.80;99.90
4056;DHT22;2043;52.184;8.690;2023-08-08T04:09:21;13.80;99.90
4056;DHT22;2043;52.184;8.690;2023-08-08T04:11:48;13.80;99.90
4056;DHT22;2043;52.184;8.690;2023-08-08T04:14:14;13.80;99.90
4056;DHT22;2043;52.184;8.690;2023-08-08T04:16:41;13.90;99.90
4056;DHT22;2043;52.184;8.690;2023-08-08T04:19:08;13.80;99.90
4056;DHT22;2043;52.184;8.690;2023-08-08T04:21:35;13.90;99.90
4056;DHT22;2043;52.184;8.690;2023-08-08T04:24:02;13.80;99.90
4056;DHT22;2043;52.184;8.690;2023-08-08T04:26:29;13.80;99.90
4056;DHT22;2043;52.184;8.690;2023-08-08T04:28:55;13.90;99.90
4056;DHT22;2043;52.184;8.690;2023-08-08T04:31:22;13.90;99.90
4056;DHT22;2043;52.184;8.690;2023-08-08T04:33:52;14.00;99.90
4056;DHT22;2043;52.184;8.690;2023-08-08T04:36:28;14.10;99.90
4056;DHT22;2043;52.184;8.690;2023-08-08T04:38:55;14.00;99.90
4056;DHT22;2043;52.184;8.690;2023-08-08T04:41:22;14.10;99.90
4056;DHT22;2043;52.184;8.690;2023-08-08T04:43:49;14.10;99.90
4056;DHT22;2043;52.184;8.690;2023-08-08T04:46:15;13.90;99.90
4056;DHT22;2043;52.184;8.690;2023-08-08T04:48:42;13.90;99.90
4056;DHT22;2043;52.184;8.690;2023-08-08T04:51:09;14.00;99.90
4056;DHT22;2043;52.184;8.690;2023-08-08T04:53:36;14.00;99.90
4056;DHT22;2043;52.184;8.690;2023-08-08T04:56:03;14.00;99.90
4056;DHT22;2043;52.184;8.690;2023-08-08T04:58:30;14.00;99.90
4056;DHT22;2043;52.184;8.690;2023-08-08T05:00:56;14.10;99.90
4056;DHT22;2043;52.184;8.690;2023-08-08T05:03:23;14.10;99.90
4056;DHT22;2043;52.184;8.690;2023-08-08T05:05:50;14.10;99.90
4056;DHT22;2043;52.184;8.690;2023-08-08T05:08:17;14.10;99.90
4056;DHT22;2043;52.184;8.690;2023-08-08T05:10:44;14.00;99.90
4056;DHT22;2043;52.184;8.690;2023-08-08T05:15:38;14.20;99.90
4056;DHT22;2043;52.184;8.690;2023-08-08T05:18:05;14.20;99.90
4056;DHT22;2043;52.184;8.690;2023-08-08T05:20:32;14.20;99.90
4056;DHT22;2043;52.184;8.690;2023-08-08T05:22:58;14.10;99.90
4056;DHT22;2043;52.184;8.690;2023-08-08T05:25:25;14.00;99.90
4056;DHT22;2043;52.184;8.690;2023-08-08T05:27:52;14.10;99.90
4056;DHT22;2043;52.184;8.690;2023-08-08T05:30:20;14.10;99.90
4056;DHT22;2043;52.184;8.690;2023-08-08T05:32:47;14.20;99.90
4056;DHT22;2043;52.184;8.690;2023-08-08T05:35:14;14.20;99.90
4056;DHT22;2043;52.184;8.690;2023-08-08T05:37:40;14.30;99.90
4056;DHT22;2043;52.184;8.690;2023-08-08T05:40:07;14.30;99.90
4056;DHT22;2043;52.184;8.690;2023-08-08T05:42:34;14.30;99.90
4056;DHT22;2043;52.184;8.690;2023-08-08T05:45:01;14.50;99.90
4056;DHT22;2043;52.184;8.690;2023-08-08T05:47:28;14.50;99.90
4056;DHT22;2043;52.184;8.690;2023-08-08T05:49:55;14.50;99.90
4056;DHT22;2043;52.184;8.690;2023-08-08T05:52:22;14.70;99.90
4056;DHT22;2043;52.184;8.690;2023-08-08T05:57:16;14.70;99.90
4056;DHT22;2043;52.184;8.690;2023-08-08T05:59:43;14.90;99.90
4056;DHT22;2043;52.184;8.690;2023-08-08T06:02:11;14.80;99.90
4056;DHT22;2043;52.184;8.690;2023-08-08T06:04:38;14.80;99.90
4056;DHT22;2043;52.184;8.690;2023-08-08T06:07:05;14.80;99.90
4056;DHT22;2043;52.184;8.690;2023-08-08T06:09:36;14.90;99.90
4056;DHT22;2043;52.184;8.690;2023-08-08T06:12:04;15.00;99.90
4056;DHT22;2043;52.184;8.690;2023-08-08T06:14:31;14.90;99.90
4056;DHT22;2043;52.184;8.690;2023-08-08T06:16:58;14.80;99.90
4056;DHT22;2043;52.184;8.690;2023-08-08T06:19:25;14.90;99.90
4056;DHT22;2043;52.184;8.690;2023-08-08T06:21:51;15.10;99.90
4056;DHT22;2043;52.184;8.690;2023-08-08T06:24:18;15.20;99.90
4056;DHT22;2043;52.184;8.690;2023-08-08T06:26:45;15.50;99.90
4056;DHT22;2043;52.184;8.690;2023-08-08T06:29:12;15.70;99.90
4056;DHT22;2043;52.184;8.690;2023-08-08T06:31:41;15.90;99.90
4056;DHT22;2043;52.184;8.690;2023-08-08T06:34:08;16.00;99.90
4056;DHT22;2043;52.184;8.690;2023-08-08T06:36:35;15.70;99.90
4056;DHT22;2043;52.184;8.690;2023-08-08T06:39:02;15.70;99.90
4056;DHT22;2043;52.184;8.690;2023-08-08T06:41:30;15.70;99.90
4056;DHT22;2043;52.184;8.690;2023-08-08T06:43:56;15.60;99.90
4056;DHT22;2043;52.184;8.690;2023-08-08T06:46:23;15.90;99.90
4056;DHT22;2043;52.184;8.690;2023-08-08T06:48:51;16.20;99.90
4056;DHT22;2043;52.184;8.690;2023-08-08T06:51:24;16.20;99.90
4056;DHT22;2043;52.184;8.690;2023-08-08T06:53:51;16.40;99.90
4056;DHT22;2043;52.184;8.690;2023-08-08T06:56:18;16.70;99.90
4056;DHT22;2043;52.184;8.690;2023-08-08T06:58:45;16.70;99.80
4056;DHT22;2043;52.184;8.690;2023-08-08T07:01:12;16.90;99.20
4056;DHT22;2043;52.184;8.690;2023-08-08T07:03:40;17.40;97.90
4056;DHT22;2043;52.184;8.690;2023-08-08T07:06:07;17.50;97.50
4056;DHT22;2043;52.184;8.690;2023-08-08T07:08:33;17.50;97.50
4056;DHT22;2043;52.184;8.690;2023-08-08T07:11:00;17.50;97.20
4056;DHT22;2043;52.184;8.690;2023-08-08T07:13:27;17.30;97.80
4056;DHT22;2043;52.184;8.690;2023-08-08T07:15:54;17.40;97.80
4056;DHT22;2043;52.184;8.690;2023-08-08T07:18:21;16.60;99.20
4056;DHT22;2043;52.184;8.690;2023-08-08T07:20:48;16.70;99.60
4056;DHT22;2043;52.184;8.690;2023-08-08T07:23:16;16.80;99.40
4056;DHT22;2043;52.184;8.690;2023-08-08T07:25:43;17.00;98.70
4056;DHT22;2043;52.184;8.690;2023-08-08T07:28:11;17.00;98.80
4056;DHT22;2043;52.184;8.690;2023-08-08T07:30:38;17.30;99.30
4056;DHT22;2043;52.184;8.690;2023-08-08T07:33:05;17.30;97.90
4056;DHT22;2043;52.184;8.690;2023-08-08T07:35:33;17.30;97.80
4056;DHT22;2043;52.184;8.690;2023-08-08T07:37:59;17.20;97.80
4056;DHT22;2043;52.184;8.690;2023-08-08T07:40:27;17.20;98.10
4056;DHT22;2043;52.184;8.690;2023-08-08T07:42:53;17.70;97.00
4056;DHT22;2043;52.184;8.690;2023-08-08T07:45:20;17.70;96.60
4056;DHT22;2043;52.184;8.690;2023-08-08T07:47:47;17.10;97.50
4056;DHT22;2043;52.184;8.690;2023-08-08T07:50:14;17.00;98.20
4056;DHT22;2043;52.184;8.690;2023-08-08T07:52:41;16.70;99.20
4056;DHT22;2043;52.184;8.690;2023-08-08T07:55:08;16.70;98.90
4056;DHT22;2043;52.184;8.690;2023-08-08T07:57:35;16.70;98.70
4056;DHT22;2043;52.184;8.690;2023-08-08T08:00:05;16.80;99.60
4056;DHT22;2043;52.184;8.690;2023-08-08T08:02:42;17.10;98.60
4056;DHT22;2043;52.184;8.690;2023-08-08T08:05:09;17.60;96.50
4056;DHT22;2043;52.184;8.690;2023-08-08T08:07:37;17.80;95.50
4056;DHT22;2043;52.184;8.690;2023-08-08T08:10:06;17.50;96.40
4056;DHT22;2043;52.184;8.690;2023-08-08T08:12:34;17.40;96.80
4056;DHT22;2043;52.184;8.690;2023-08-08T08:15:01;17.10;97.00
4056;DHT22;2043;52.184;8.690;2023-08-08T08:17:28;17.00;98.80
4056;DHT22;2043;52.184;8.690;2023-08-08T08:19:55;16.70;99.90
4056;DHT22;2043;52.184;8.690;2023-08-08T08:22:21;16.60;99.90
4056;DHT22;2043;52.184;8.690;2023-08-08T08:24:48;16.30;99.90
4056;DHT22;2043;52.184;8.690;2023-08-08T08:27:15;16.30;99.90
4056;DHT22;2043;52.184;8.690;2023-08-08T08:29:42;16.20;99.90
4056;DHT22;2043;52.184;8.690;2023-08-08T08:32:09;16.20;99.90
4056;DHT22;2043;52.184;8.690;2023-08-08T08:34:36;16.30;99.90
4056;DHT22;2043;52.184;8.690;2023-08-08T08:37:03;16.40;99.90
4056;DHT22;2043;52.184;8.690;2023-08-08T08:39:30;16.60;99.30
4056;DHT22;2043;52.184;8.690;2023-08-08T08:41:59;16.70;99.30
4056;DHT22;2043;52.184;8.690;2023-08-08T08:44:31;16.60;99.90
4056;DHT22;2043;52.184;8.690;2023-08-08T08:47:02;16.20;99.90
4056;DHT22;2043;52.184;8.690;2023-08-08T08:49:30;15.90;99.90
4056;DHT22;2043;52.184;8.690;2023-08-08T08:51:59;15.80;99.90
4056;DHT22;2043;52.184;8.690;2023-08-08T08:54:29;15.80;99.90
4056;DHT22;2043;52.184;8.690;2023-08-08T08:56:57;15.80;99.90
4056;DHT22;2043;52.184;8.690;2023-08-08T08:59:25;15.80;99.90
4056;DHT22;2043;52.184;8.690;2023-08-08T09:01:53;15.90;99.90
4056;DHT22;2043;52.184;8.690;2023-08-08T09:04:21;16.00;99.90
4056;DHT22;2043;52.184;8.690;2023-08-08T09:06:49;16.20;99.90
4056;DHT22;2043;52.184;8.690;2023-08-08T09:09:17;16.20;99.90
4056;DHT22;2043;52.184;8.690;2023-08-08T09:11:51;17.30;99.90
4056;DHT22;2043;52.184;8.690;2023-08-08T09:14:22;17.80;98.40
4056;DHT22;2043;52.184;8.690;2023-08-08T09:16:51;18.20;97.20
4056;DHT22;2043;52.184;8.690;2023-08-08T09:19:21;18.20;96.40
4056;DHT22;2043;52.184;8.690;2023-08-08T09:21:49;18.40;94.60
4056;DHT22;2043;52.184;8.690;2023-08-08T09:24:16;18.30;95.50
4056;DHT22;2043;52.184;8.690;2023-08-08T09:26:44;18.30;95.60
4056;DHT22;2043;52.184;8.690;2023-08-08T09:29:13;18.40;93.20
4056;DHT22;2043;52.184;8.690;2023-08-08T09:31:41;18.40;93.00
4056;DHT22;2043;52.184;8.690;2023-08-08T09:34:08;18.80;91.60
4056;DHT22;2043;52.184;8.690;2023-08-08T09:36:34;18.90;91.70
4056;DHT22;2043;52.184;8.690;2023-08-08T09:39:02;19.20;90.00
4056;DHT22;2043;52.184;8.690;2023-08-08T09:41:29;18.90;89.30
4056;DHT22;2043;52.184;8.690;2023-08-08T09:43:58;18.60;90.40
4056;DHT22;2043;52.184;8.690;2023-08-08T09:46:24;18.60;90.40
4056;DHT22;2043;52.184;8.690;2023-08-08T09:48:51;18.10;91.10
4056;DHT22;2043;52.184;8.690;2023-08-08T09:51:20;17.70;92.50
4056;DHT22;2043;52.184;8.690;2023-08-08T09:53:48;17.60;93.30
4056;DHT22;2043;52.184;8.690;2023-08-08T09:56:15;17.50;94.10
4056;DHT22;2043;52.184;8.690;2023-08-08T09:58:43;17.90;94.70
4056;DHT22;2043;52.184;8.690;2023-08-08T10:01:10;18.00;93.40
4056;DHT22;2043;52.184;8.690;2023-08-08T10:03:40;17.90;94.20
4056;DHT22;2043;52.184;8.690;2023-08-08T10:06:10;18.70;93.20
4056;DHT22;2043;52.184;8.690;2023-08-08T10:08:37;19.30;92.00
4056;DHT22;2043;52.184;8.690;2023-08-08T10:11:05;19.40;91.80
4056;DHT22;2043;52.184;8.690;2023-08-08T10:13:35;19.80;90.10
4056;DHT22;2043;52.184;8.690;2023-08-08T10:16:08;19.80;89.40
4056;DHT22;2043;52.184;8.690;2023-08-08T10:18:36;19.90;87.50
4056;DHT22;2043;52.184;8.690;2023-08-08T10:21:04;19.80;86.50
4056;DHT22;2043;52.184;8.690;2023-08-08T10:23:36;19.80;86.50
4056;DHT22;2043;52.184;8.690;2023-08-08T10:26:04;19.70;85.50
4056;DHT22;2043;52.184;8.690;2023-08-08T10:28:32;20.10;84.70
4056;DHT22;2043;52.184;8.690;2023-08-08T10:31:01;20.10;84.80
4056;DHT22;2043;52.184;8.690;2023-08-08T10:33:42;20.10;84.20
4056;DHT22;2043;52.184;8.690;2023-08-08T10:36:10;20.10;84.10
4056;DHT22;2043;52.184;8.690;2023-08-08T10:41:13;20.20;82.80
4056;DHT22;2043;52.184;8.690;2023-08-08T10:43:48;20.00;83.80
4056;DHT22;2043;52.184;8.690;2023-08-08T10:46:27;19.90;83.70
4056;DHT22;2043;52.184;8.690;2023-08-08T10:49:00;19.10;84.90
4056;DHT22;2043;52.184;8.690;2023-08-08T10:51:45;18.90;85.70
4056;DHT22;2043;52.184;8.690;2023-08-08T10:54:22;18.90;87.00
4056;DHT22;2043;52.184;8.690;2023-08-08T10:56:54;18.90;85.90
4056;DHT22;2043;52.184;8.690;2023-08-08T10:59:26;18.90;85.90
4056;DHT22;2043;52.184;8.690;2023-08-08T11:01:54;18.60;87.20
4056;DHT22;2043;52.184;8.690;2023-08-08T11:04:24;18.60;86.70
4056;DHT22;2043;52.184;8.690;2023-08-08T11:06:53;18.60;86.60
4056;DHT22;2043;52.184;8.690;2023-08-08T11:09:21;18.70;86.80
4056;DHT22;2043;52.184;8.690;2023-08-08T11:11:48;18.70;87.00
4056;DHT22;2043;52.184;8.690;2023-08-08T11:14:18;19.10;86.70
4056;DHT22;2043;52.184;8.690;2023-08-08T11:16:47;19.50;86.00
4056;DHT22;2043;52.184;8.690;2023-08-08T11:19:14;19.50;86.00
4056;DHT22;2043;52.184;8.690;2023-08-08T11:21:44;20.00;84.30
4056;DHT22;2043;52.184;8.690;2023-08-08T11:24:12;19.80;83.80
4056;DHT22;2043;52.184;8.690;2023-08-08T11:26:40;19.50;84.00
4056;DHT22;2043;52.184;8.690;2023-08-08T11:29:08;19.10;84.90
4056;DHT22;2043;52.184;8.690;2023-08-08T11:31:35;18.80;85.20
4056;DHT22;2043;52.184;8.690;2023-08-08T11:34:02;18.80;85.00
4056;DHT22;2043;52.184;8.690;2023-08-08T11:36:32;18.90;85.20
4056;DHT22;2043;52.184;8.690;2023-08-08T11:39:03;19.30;84.60
4056;DHT22;2043;52.184;8.690;2023-08-08T11:41:37;19.50;84.10
4056;DHT22;2043;52.184;8.690;2023-08-08T11:44:05;19.80;83.80
4056;DHT22;2043;52.184;8.690;2023-08-08T11:46:34;19.90;82.30
4056;DHT22;2043;52.184;8.690;2023-08-08T11:49:05;19.70;82.00
4056;DHT22;2043;52.184;8.690;2023-08-08T11:51:34;19.80;82.40
4056;DHT22;2043;52.184;8.690;2023-08-08T11:54:03;20.30;81.40
4056;DHT22;2043;52.184;8.690;2023-08-08T11:56:33;19.70;81.40
4056;DHT22;2043;52.184;8.690;2023-08-08T11:59:01;19.40;83.00
4056;DHT22;2043;52.184;8.690;2023-08-08T12:01:31;19.10;84.10
4056;DHT22;2043;52.184;8.690;2023-08-08T12:03:58;18.90;84.30
4056;DHT22;2043;52.184;8.690;2023-08-08T12:06:28;18.70;85.10
4056;DHT22;2043;52.184;8.690;2023-08-08T12:08:55;18.40;87.70
4056;DHT22;2043;52.184;8.690;2023-08-08T12:11:22;18.30;90.10
4056;DHT22;2043;52.184;8.690;2023-08-08T12:14:00;18.10;92.30
4056;DHT22;2043;52.184;8.690;2023-08-08T12:16:28;18.10;93.50
4056;DHT22;2043;52.184;8.690;2023-08-08T12:19:04;18.40;89.80
4056;DHT22;2043;52.184;8.690;2023-08-08T12:21:33;18.80;89.70
4056;DHT22;2043;52.184;8.690;2023-08-08T12:24:01;19.20;88.20
4056;DHT22;2043;52.184;8.690;2023-08-08T12:26:28;19.10;86.10
4056;DHT22;2043;52.184;8.690;2023-08-08T12:28:54;19.10;85.90
4056;DHT22;2043;52.184;8.690;2023-08-08T12:31:21;19.50;85.30
4056;DHT22;2043;52.184;8.690;2023-08-08T12:33:48;19.90;84.60
4056;DHT22;2043;52.184;8.690;2023-08-08T12:36:15;19.90;84.30
4056;DHT22;2043;52.184;8.690;2023-08-08T12:38:42;21.00;82.80
4056;DHT22;2043;52.184;8.690;2023-08-08T12:41:09;21.10;81.60
4056;DHT22;2043;52.184;8.690;2023-08-08T12:43:37;21.10;81.80
4056;DHT22;2043;52.184;8.690;2023-08-08T12:46:04;20.80;81.80
4056;DHT22;2043;52.184;8.690;2023-08-08T12:48:31;20.50;82.20
4056;DHT22;2043;52.184;8.690;2023-08-08T12:50:58;20.80;82.80
4056;DHT22;2043;52.184;8.690;2023-08-08T12:53:25;21.30;80.40
4056;DHT22;2043;52.184;8.690;2023-08-08T12:55:52;21.20;81.00
4056;DHT22;2043;52.184;8.690;2023-08-08T12:58:18;21.30;81.40
4056;DHT22;2043;52.184;8.690;2023-08-08T13:00:45;21.00;80.30
4056;DHT22;2043;52.184;8.690;2023-08-08T13:03:13;20.50;80.70
4056;DHT22;2043;52.184;8.690;2023-08-08T13:05:39;20.70;80.80
4056;DHT22;2043;52.184;8.690;2023-08-08T13:08:06;21.00;80.00
4056;DHT22;2043;52.184;8.690;2023-08-08T13:10:33;21.00;80.20
4056;DHT22;2043;52.184;8.690;2023-08-08T13:13:00;21.10;79.90
4056;DHT22;2043;52.184;8.690;2023-08-08T13:15:27;21.00;79.80
4056;DHT22;2043;52.184;8.690;2023-08-08T13:17:54;20.80;79.50
4056;DHT22;2043;52.184;8.690;2023-08-08T13:20:21;20.80;79.50
4056;DHT22;2043;52.184;8.690;2023-08-08T13:22:48;20.40;81.80
4056;DHT22;2043;52.184;8.690;2023-08-08T13:25:15;20.30;81.70
4056;DHT22;2043;52.184;8.690;2023-08-08T13:27:42;19.70;82.10
4056;DHT22;2043;52.184;8.690;2023-08-08T13:30:09;19.30;81.50
4056;DHT22;2043;52.184;8.690;2023-08-08T13:32:36;19.30;81.60
4056;DHT22;2043;52.184;8.690;2023-08-08T13:35:03;19.30;81.60
4056;DHT22;2043;52.184;8.690;2023-08-08T13:37:31;19.20;81.60
4056;DHT22;2043;52.184;8.690;2023-08-08T13:39:58;19.50;81.60
4056;DHT22;2043;52.184;8.690;2023-08-08T13:42:25;19.80;81.70
4056;DHT22;2043;52.184;8.690;2023-08-08T13:44:51;20.00;81.10
4056;DHT22;2043;52.184;8.690;2023-08-08T13:47:21;20.00;80.90
4056;DHT22;2043;52.184;8.690;2023-08-08T13:49:47;20.50;80.50
4056;DHT22;2043;52.184;8.690;2023-08-08T13:52:14;20.40;80.30
4056;DHT22;2043;52.184;8.690;2023-08-08T13:54:41;20.40;80.10
4056;DHT22;2043;52.184;8.690;2023-08-08T13:57:08;20.40;80.60
4056;DHT22;2043;52.184;8.690;2023-08-08T13:59:35;20.30;80.60
4056;DHT22;2043;52.184;8.690;2023-08-08T14:02:01;20.30;80.90
4056;DHT22;2043;52.184;8.690;2023-08-08T14:04:29;20.20;80.00
4056;DHT22;2043;52.184;8.690;2023-08-08T14:06:55;20.30;80.40
4056;DHT22;2043;52.184;8.690;2023-08-08T14:09:22;20.20;80.30
4056;DHT22;2043;52.184;8.690;2023-08-08T14:11:49;19.90;80.60
4056;DHT22;2043;52.184;8.690;2023-08-08T14:14:16;19.90;80.90
4056;DHT22;2043;52.184;8.690;2023-08-08T14:16:42;19.90;80.90
4056;DHT22;2043;52.184;8.690;2023-08-08T14:19:09;19.80;81.40
4056;DHT22;2043;52.184;8.690;2023-08-08T14:21:36;19.70;82.10
4056;DHT22;2043;52.184;8.690;2023-08-08T14:24:03;19.70;82.50
4056;DHT22;2043;52.184;8.690;2023-08-08T14:26:30;19.60;82.00
4056;DHT22;2043;52.184;8.690;2023-08-08T14:28:57;19.60;82.70
4056;DHT22;2043;52.184;8.690;2023-08-08T14:31:24;19.60;83.00
4056;DHT22;2043;52.184;8.690;2023-08-08T14:33:51;18.80;88.10
4056;DHT22;2043;52.184;8.690;2023-08-08T14:36:18;18.70;88.40
4056;DHT22;2043;52.184;8.690;2023-08-08T14:38:45;18.50;91.60
4056;DHT22;2043;52.184;8.690;2023-08-08T14:41:11;18.40;91.70
4056;DHT22;2043;52.184;8.690;2023-08-08T14:43:38;18.90;91.00
4056;DHT22;2043;52.184;8.690;2023-08-08T14:46:05;19.10;91.20
4056;DHT22;2043;52.184;8.690;2023-08-08T14:48:32;19.20;89.90
4056;DHT22;2043;52.184;8.690;2023-08-08T14:51:02;19.50;88.90
4056;DHT22;2043;52.184;8.690;2023-08-08T14:53:29;19.80;87.50
4056;DHT22;2043;52.184;8.690;2023-08-08T14:55:56;19.90;87.70
4056;DHT22;2043;52.184;8.690;2023-08-08T14:58:23;19.70;87.30
4056;DHT22;2043;52.184;8.690;2023-08-08T15:00:52;19.50;88.10
4056;DHT22;2043;52.184;8.690;2023-08-08T15:03:19;19.50;88.10
4056;DHT22;2043;52.184;8.690;2023-08-08T15:05:46;19.40;90.90
4056;DHT22;2043;52.184;8.690;2023-08-08T15:08:15;19.10;91.60
4056;DHT22;2043;52.184;8.690;2023-08-08T15:10:42;19.00;92.70
4056;DHT22;2043;52.184;8.690;2023-08-08T15:13:09;18.80;93.30
4056;DHT22;2043;52.184;8.690;2023-08-08T15:15:35;18.70;93.30
4056;DHT22;2043;52.184;8.690;2023-08-08T15:18:02;18.70;94.10
4056;DHT22;2043;52.184;8.690;2023-08-08T15:20:30;18.80;94.20
4056;DHT22;2043;52.184;8.690;2023-08-08T15:22:57;19.00;93.90
4056;DHT22;2043;52.184;8.690;2023-08-08T15:25:24;19.10;93.00
4056;DHT22;2043;52.184;8.690;2023-08-08T15:27:50;19.00;94.00
4056;DHT22;2043;52.184;8.690;2023-08-08T15:30:17;19.10;93.50
4056;DHT22;2043;52.184;8.690;2023-08-08T15:32:44;19.20;93.60
4056;DHT22;2043;52.184;8.690;2023-08-08T15:35:11;19.20;92.80
4056;DHT22;2043;52.184;8.690;2023-08-08T15:37:37;19.10;93.00
4056;DHT22;2043;52.184;8.690;2023-08-08T15:40:05;18.90;93.30
4056;DHT22;2043;52.184;8.690;2023-08-08T15:42:32;18.90;93.20
4056;DHT22;2043;52.184;8.690;2023-08-08T15:44:59;19.00;94.00
4056;DHT22;2043;52.184;8.690;2023-08-08T15:47:26;19.50;92.70
4056;DHT22;2043;52.184;8.690;2023-08-08T15:49:53;19.50;92.60
4056;DHT22;2043;52.184;8.690;2023-08-08T15:52:20;19.70;89.90
4056;DHT22;2043;52.184;8.690;2023-08-08T15:54:47;19.80;89.30
4056;DHT22;2043;52.184;8.690;2023-08-08T15:57:14;20.20;87.30
4056;DHT22;2043;52.184;8.690;2023-08-08T15:59:40;20.20;87.30
4056;DHT22;2043;52.184;8.690;2023-08-08T16:02:10;20.20;86.90
4056;DHT22;2043;52.184;8.690;2023-08-08T16:04:37;20.20;86.70
4056;DHT22;2043;52.184;8.690;2023-08-08T16:07:04;20.20;86.40
4056;DHT22;2043;52.184;8.690;2023-08-08T16:09:31;20.20;85.00
4056;DHT22;2043;52.184;8.690;2023-08-08T16:11:58;20.30;85.00
4056;DHT22;2043;52.184;8.690;2023-08-08T16:14:26;20.10;83.40
4056;DHT22;2043;52.184;8.690;2023-08-08T16:16:52;19.70;82.50
4056;DHT22;2043;52.184;8.690;2023-08-08T16:19:19;19.50;82.40